createdAt,value
2018-11-06T00:02:00.127Z,97581.64
2018-11-06T00:04:33.907Z,97583.69
2018-11-06T00:07:02.452Z,97587.21
2018-11-06T00:09:30.982Z,97578.16
2018-11-06T00:11:59.539Z,97573.52
2018-11-06T00:14:28.028Z,97581.48
2018-11-06T00:16:56.540Z,97575.58
2018-11-06T00:19:25.325Z,97579.11
2018-11-06T00:21:53.856Z,97576.58
2018-11-06T00:24:22.439Z,97578.34
2018-11-06T00:26:50.994Z,97570.77
2018-11-06T00:29:19.510Z,97574.50
2018-11-06T00:31:48.042Z,97566.12
2018-11-06T00:34:16.633Z,97576.65
2018-11-06T00:36:45.064Z,97578.17
2018-11-06T00:39:13.598Z,97575.96
2018-11-06T00:41:42.135Z,97569.11
2018-11-06T00:44:10.634Z,97573.50
2018-11-06T00:46:39.985Z,97570.85
2018-11-06T00:49:08.590Z,97576.60
2018-11-06T00:51:37.487Z,97579.63
2018-11-06T00:54:06.668Z,97578.37
2018-11-06T00:56:35.163Z,97578.75
2018-11-06T00:59:03.712Z,97575.43
2018-11-06T01:01:32.234Z,97577.99
2018-11-06T01:04:06.130Z,97575.88
2018-11-06T01:06:34.640Z,97572.91
2018-11-06T01:09:03.287Z,97568.92
2018-11-06T01:12:56.193Z,97575.88
2018-11-06T01:15:24.726Z,97573.76
2018-11-06T01:17:53.237Z,97578.68
2018-11-06T01:20:21.743Z,97579.24
2018-11-06T01:22:50.264Z,97572.13
2018-11-06T01:25:18.729Z,97574.61
2018-11-06T01:27:47.280Z,97573.05
2018-11-06T01:30:18.222Z,97581.33
2018-11-06T01:32:47.101Z,97579.41
2018-11-06T01:35:16.115Z,97572.49
2018-11-06T01:37:45.293Z,97568.58
2018-11-06T01:40:14.896Z,97567.37
2018-11-06T01:42:44.026Z,97558.76
2018-11-06T01:45:13.788Z,97563.96
2018-11-06T01:47:42.473Z,97563.67
2018-11-06T01:50:15.570Z,97566.11
2018-11-06T01:52:45.081Z,97566.89
2018-11-06T01:55:13.663Z,97564.74
2018-11-06T01:57:42.247Z,97566.06
2018-11-06T02:00:13.661Z,97565.28
2018-11-06T02:02:42.395Z,97567.61
2018-11-06T02:05:12.642Z,97570.70
2018-11-06T02:07:41.909Z,97562.75
2018-11-06T02:10:11.972Z,97562.48
2018-11-06T02:12:40.855Z,97556.56
2018-11-06T02:15:09.891Z,97557.73
2018-11-06T02:17:39.414Z,97557.89
2018-11-06T02:20:08.661Z,97555.53
2018-11-06T02:22:37.146Z,97552.54
2018-11-06T02:25:06.433Z,97541.72
2018-11-06T02:27:34.973Z,97545.75
2018-11-06T02:30:03.552Z,97542.78
2018-11-06T02:32:32.180Z,97545.43
2018-11-06T02:35:00.582Z,97542.88
2018-11-06T02:37:29.127Z,97534.04
2018-11-06T02:39:57.678Z,97541.00
2018-11-06T02:42:26.167Z,97546.03
2018-11-06T02:44:54.707Z,97539.80
2018-11-06T02:47:23.197Z,97544.48
2018-11-06T02:49:51.749Z,97548.47
2018-11-06T02:52:20.282Z,97543.05
2018-11-06T02:54:48.808Z,97546.20
2018-11-06T02:57:17.310Z,97536.55
2018-11-06T02:59:45.828Z,97542.23
2018-11-06T03:02:14.353Z,97546.86
2018-11-06T03:04:42.849Z,97544.38
2018-11-06T03:07:11.347Z,97546.09
2018-11-06T03:09:39.896Z,97543.70
2018-11-06T03:12:08.414Z,97541.60
2018-11-06T03:14:36.914Z,97548.39
2018-11-06T03:17:05.832Z,97549.73
2018-11-06T03:19:34.238Z,97548.63
2018-11-06T03:22:02.753Z,97558.62
2018-11-06T03:24:31.310Z,97553.15
2018-11-06T03:26:59.880Z,97545.81
2018-11-06T03:29:28.305Z,97552.14
2018-11-06T03:31:56.836Z,97553.25
2018-11-06T03:34:25.360Z,97558.23
2018-11-06T03:36:53.896Z,97560.48
2018-11-06T03:39:22.385Z,97566.38
2018-11-06T03:41:50.947Z,97573.51
2018-11-06T03:44:19.455Z,97568.20
2018-11-06T03:46:47.958Z,97571.29
2018-11-06T03:49:16.440Z,97566.92
2018-11-06T03:51:44.957Z,97566.94
2018-11-06T03:54:13.501Z,97566.53
2018-11-06T03:56:42.005Z,97562.85
2018-11-06T03:59:10.466Z,97559.98
2018-11-06T04:01:39.001Z,97565.11
2018-11-06T04:04:07.509Z,97556.27
2018-11-06T04:06:36.054Z,97564.68
2018-11-06T04:09:06.673Z,97565.97
2018-11-06T04:11:35.214Z,97572.05
2018-11-06T04:14:03.698Z,97577.67
2018-11-06T04:16:32.228Z,97567.87
2018-11-06T04:19:00.695Z,97570.77
2018-11-06T04:21:35.002Z,97568.02
2018-11-06T04:24:03.937Z,97562.33
2018-11-06T04:26:32.413Z,97563.36
2018-11-06T04:29:00.884Z,97564.44
2018-11-06T04:31:29.387Z,97563.50
2018-11-06T04:33:57.862Z,97564.11
2018-11-06T04:36:26.369Z,97562.15
2018-11-06T04:38:54.846Z,97559.28
2018-11-06T04:41:23.397Z,97558.57
2018-11-06T04:43:52.400Z,97562.93
2018-11-06T04:46:21.080Z,97558.07
2018-11-06T04:48:50.233Z,97560.22
2018-11-06T04:51:19.006Z,97555.92
2018-11-06T04:53:47.470Z,97556.35
2018-11-06T04:56:16.006Z,97552.67
2018-11-06T04:58:44.512Z,97556.56
2018-11-06T05:01:13.025Z,97554.74
2018-11-06T05:03:45.707Z,97556.67
2018-11-06T05:06:14.321Z,97554.74
2018-11-06T05:08:42.805Z,97553.53
2018-11-06T05:11:11.301Z,97553.02
2018-11-06T05:13:39.767Z,97550.66
2018-11-06T05:17:37.394Z,97561.69
2018-11-06T05:20:08.712Z,97549.20
2018-11-06T05:22:37.273Z,97557.34
2018-11-06T05:25:06.547Z,97553.16
2018-11-06T05:27:35.092Z,97552.84
2018-11-06T05:30:03.567Z,97556.81
2018-11-06T05:32:32.089Z,97557.00
2018-11-06T05:35:00.705Z,97558.64
2018-11-06T05:37:29.082Z,97565.15
2018-11-06T05:41:08.750Z,97561.50
2018-11-06T05:43:38.196Z,97556.56
2018-11-06T05:46:06.819Z,97553.98
2018-11-06T05:48:35.329Z,97557.14
2018-11-06T05:51:03.872Z,97562.30
2018-11-06T05:53:32.369Z,97561.18
2018-11-06T05:56:00.863Z,97562.61
2018-11-06T05:58:29.370Z,97577.35
2018-11-06T06:00:57.850Z,97575.42
2018-11-06T06:03:26.367Z,97573.67
2018-11-06T06:05:54.832Z,97580.28
2018-11-06T06:08:23.336Z,97578.49
2018-11-06T06:10:51.928Z,97582.14
2018-11-06T06:13:20.421Z,97586.48
2018-11-06T06:15:48.910Z,97579.64
2018-11-06T06:18:17.408Z,97574.17
2018-11-06T06:20:45.902Z,97580.22
2018-11-06T06:23:14.427Z,97573.59
2018-11-06T06:25:42.918Z,97570.30
2018-11-06T06:28:11.463Z,97577.70
2018-11-06T06:30:40.003Z,97571.75
2018-11-06T06:33:08.569Z,97566.30
2018-11-06T06:35:37.100Z,97572.97
2018-11-06T06:38:06.114Z,97574.19
2018-11-06T06:40:34.639Z,97570.97
2018-11-06T06:43:03.190Z,97571.58
2018-11-06T06:45:31.687Z,97570.34
2018-11-06T06:48:00.250Z,97569.20
2018-11-06T06:50:28.744Z,97572.41
2018-11-06T06:52:57.267Z,97575.93
2018-11-06T06:55:25.807Z,97575.67
2018-11-06T06:58:03.311Z,97572.95
2018-11-06T07:00:51.248Z,97579.56
2018-11-06T07:03:21.193Z,97574.34
2018-11-06T07:05:49.655Z,97580.77
2018-11-06T07:08:18.771Z,97585.16
2018-11-06T07:10:47.264Z,97594.92
2018-11-06T07:13:15.835Z,97594.53
2018-11-06T07:15:44.333Z,97596.56
2018-11-06T07:18:12.890Z,97593.93
2018-11-06T07:20:42.073Z,97594.64
2018-11-06T07:23:10.711Z,97583.55
2018-11-06T07:25:39.210Z,97593.72
2018-11-06T07:28:08.095Z,97598.17
2018-11-06T07:30:37.925Z,97596.91
2018-11-06T07:33:06.439Z,97596.91
2018-11-06T07:35:35.196Z,97597.11
2018-11-06T07:38:03.673Z,97595.89
2018-11-06T07:40:32.259Z,97604.07
2018-11-06T07:43:02.700Z,97601.50
2018-11-06T07:45:31.849Z,97596.14
2018-11-06T07:48:00.353Z,97595.89
2018-11-06T07:50:28.851Z,97596.45
2018-11-06T07:52:57.312Z,97597.99
2018-11-06T07:55:25.858Z,97602.64
2018-11-06T07:57:54.425Z,97597.63
2018-11-06T08:00:25.347Z,97589.57
2018-11-06T08:02:53.858Z,97586.05
2018-11-06T08:05:22.431Z,97590.63
2018-11-06T08:07:51.624Z,97594.88
2018-11-06T08:10:20.147Z,97591.87
2018-11-06T08:12:50.089Z,97584.98
2018-11-06T08:15:18.629Z,97578.31
2018-11-06T08:17:47.317Z,97572.56
2018-11-06T08:20:15.880Z,97572.39
2018-11-06T08:22:44.403Z,97569.66
2018-11-06T08:25:14.199Z,97570.53
2018-11-06T08:27:43.594Z,97564.05
2018-11-06T08:30:12.685Z,97568.42
2018-11-06T08:32:41.693Z,97570.08
2018-11-06T08:35:12.284Z,97565.42
2018-11-06T08:37:41.192Z,97562.87
2018-11-06T08:40:11.436Z,97561.83
2018-11-06T08:42:40.585Z,97559.34
2018-11-06T08:45:10.848Z,97556.48
2018-11-06T08:47:40.170Z,97560.97
2018-11-06T08:50:11.276Z,97560.88
2018-11-06T08:52:42.626Z,97552.71
2018-11-06T08:55:12.336Z,97554.92
2018-11-06T08:57:41.601Z,97550.51
2018-11-06T09:00:16.496Z,97556.74
2018-11-06T09:02:46.407Z,97550.00
2018-11-06T09:05:20.601Z,97542.86
2018-11-06T09:07:51.330Z,97548.27
2018-11-06T09:10:19.901Z,97542.64
2018-11-06T09:12:48.402Z,97539.22
2018-11-06T09:15:19.717Z,97542.00
2018-11-06T09:17:48.245Z,97543.69
2018-11-06T09:20:18.205Z,97542.25
2018-11-06T09:22:46.739Z,97535.08
2018-11-06T09:25:16.782Z,97537.97
2018-11-06T09:27:45.841Z,97533.77
2018-11-06T09:30:15.699Z,97536.05
2018-11-06T09:32:44.255Z,97530.34
2018-11-06T09:35:15.549Z,97526.20
2018-11-06T09:37:44.610Z,97525.94
2018-11-06T09:40:17.745Z,97529.47
2018-11-06T09:42:46.985Z,97524.91
2018-11-06T09:45:15.791Z,97522.19
2018-11-06T09:47:45.794Z,97521.14
2018-11-06T09:50:16.742Z,97520.75
2018-11-06T09:52:45.926Z,97518.75
2018-11-06T09:55:16.076Z,97514.70
2018-11-06T09:57:44.896Z,97514.73
2018-11-06T10:00:17.893Z,97513.94
2018-11-06T10:02:46.439Z,97511.00
2018-11-06T10:05:15.297Z,97508.62
2018-11-06T10:07:44.238Z,97504.52
2018-11-06T10:10:21.103Z,97508.73
2018-11-06T10:12:49.639Z,97499.98
2018-11-06T10:15:19.699Z,97503.34
2018-11-06T10:17:50.405Z,97503.04
2018-11-06T10:20:21.109Z,97499.66
2018-11-06T10:22:49.622Z,97498.66
2018-11-06T10:26:42.526Z,97488.91
2018-11-06T10:29:11.020Z,97486.63
2018-11-06T10:31:39.640Z,97490.73
2018-11-06T10:34:08.179Z,97490.19
2018-11-06T10:36:36.724Z,97487.78
2018-11-06T10:39:08.107Z,97487.34
2018-11-06T10:41:36.798Z,97488.03
2018-11-06T10:44:05.689Z,97488.36
2018-11-06T10:46:34.980Z,97475.23
2018-11-06T10:49:03.661Z,97475.61
2018-11-06T10:51:32.245Z,97473.64
2018-11-06T10:54:00.804Z,97468.06
2018-11-06T10:56:29.348Z,97463.39
2018-11-06T10:58:57.944Z,97461.87
2018-11-06T11:01:31.753Z,97456.34
2018-11-06T11:04:05.671Z,97456.35
2018-11-06T11:06:34.305Z,97453.25
2018-11-06T11:09:02.876Z,97454.56
2018-11-06T11:11:31.524Z,97449.31
2018-11-06T11:14:00.143Z,97443.91
2018-11-06T11:16:28.811Z,97444.20
2018-11-06T11:18:57.367Z,97432.68
2018-11-06T11:21:26.032Z,97428.98
2018-11-06T11:23:54.530Z,97428.44
2018-11-06T11:26:23.038Z,97436.19
2018-11-06T11:28:51.576Z,97429.52
2018-11-06T11:31:20.142Z,97429.02
2018-11-06T11:33:48.713Z,97430.07
2018-11-06T11:36:17.300Z,97429.89
2018-11-06T11:38:45.795Z,97425.70
2018-11-06T11:41:15.510Z,97416.20
2018-11-06T11:43:45.681Z,97416.63
2018-11-06T11:46:14.199Z,97413.05
2018-11-06T11:48:42.911Z,97403.79
2018-11-06T11:51:11.458Z,97403.16
2018-11-06T11:53:39.977Z,97408.72
2018-11-06T11:56:08.480Z,97408.05
2018-11-06T11:58:39.607Z,97398.16
2018-11-06T12:01:08.158Z,97396.88
2018-11-06T12:03:36.690Z,97396.69
2018-11-06T12:06:05.238Z,97400.75
2018-11-06T12:08:33.746Z,97394.56
2018-11-06T12:11:02.410Z,97392.33
2018-11-06T12:13:30.911Z,97385.86
2018-11-06T12:15:59.380Z,97386.11
2018-11-06T12:18:27.970Z,97380.36
2018-11-06T12:20:56.481Z,97375.17
2018-11-06T12:23:24.998Z,97372.85
2018-11-06T12:25:53.624Z,97365.16
2018-11-06T12:28:22.059Z,97362.23
2018-11-06T12:30:50.593Z,97364.63
2018-11-06T12:33:19.089Z,97367.98
2018-11-06T12:35:47.622Z,97361.51
2018-11-06T12:38:16.168Z,97360.80
2018-11-06T12:40:44.661Z,97358.48
2018-11-06T12:43:13.259Z,97352.52
2018-11-06T12:45:41.674Z,97347.69
2018-11-06T12:48:10.209Z,97350.22
2018-11-06T12:50:38.709Z,97348.30
2018-11-06T12:53:07.217Z,97345.52
2018-11-06T12:55:35.710Z,97348.08
2018-11-06T12:58:04.247Z,97349.72
2018-11-06T13:00:32.854Z,97336.14
2018-11-06T13:03:02.403Z,97339.30
2018-11-06T13:05:30.994Z,97346.26
2018-11-06T13:07:59.497Z,97339.63
2018-11-06T13:10:28.013Z,97334.91
2018-11-06T13:12:56.854Z,97333.50
2018-11-06T13:15:25.406Z,97332.98
2018-11-06T13:17:53.851Z,97331.05
2018-11-06T13:20:22.322Z,97331.94
2018-11-06T13:22:50.851Z,97327.03
2018-11-06T13:25:20.379Z,97326.45
2018-11-06T13:27:48.876Z,97326.82
2018-11-06T13:30:18.629Z,97320.21
2018-11-06T13:32:47.869Z,97329.54
2018-11-06T13:35:16.486Z,97329.86
2018-11-06T13:37:46.435Z,97330.39
2018-11-06T13:40:15.975Z,97324.92
2018-11-06T13:42:44.718Z,97319.21
2018-11-06T13:45:15.100Z,97328.75
2018-11-06T13:47:43.578Z,97321.02
2018-11-06T13:50:12.112Z,97325.65
2018-11-06T13:52:40.616Z,97321.94
2018-11-06T13:55:10.779Z,97314.68
2018-11-06T13:57:41.726Z,97307.05
2018-11-06T14:00:12.220Z,97307.12
2018-11-06T14:02:40.702Z,97307.07
2018-11-06T14:05:09.243Z,97305.94
2018-11-06T14:07:37.724Z,97300.80
2018-11-06T14:10:07.084Z,97300.16
2018-11-06T14:12:35.922Z,97296.33
2018-11-06T14:15:06.425Z,97304.05
2018-11-06T14:17:39.915Z,97311.83
2018-11-06T14:20:11.132Z,97310.81
2018-11-06T14:22:39.700Z,97311.39
2018-11-06T14:25:08.747Z,97309.84
2018-11-06T14:27:37.603Z,97305.65
2018-11-06T14:30:10.029Z,97303.34
2018-11-06T14:32:38.631Z,97311.83
2018-11-06T14:35:08.481Z,97300.06
2018-11-06T14:37:36.934Z,97305.78
2018-11-06T14:40:06.774Z,97307.02
2018-11-06T14:42:35.408Z,97311.77
2018-11-06T14:45:04.003Z,97312.48
2018-11-06T14:47:32.562Z,97312.49
2018-11-06T14:50:01.070Z,97314.66
2018-11-06T14:52:29.559Z,97313.33
2018-11-06T14:54:58.107Z,97315.13
2018-11-06T14:57:26.586Z,97316.41
2018-11-06T14:59:55.103Z,97314.42
2018-11-06T15:02:23.625Z,97308.86
2018-11-06T15:04:52.147Z,97304.91
2018-11-06T15:07:20.622Z,97304.08
2018-11-06T15:09:49.171Z,97308.86
2018-11-06T15:12:17.668Z,97306.84
2018-11-06T15:14:46.414Z,97306.52
2018-11-06T15:17:14.919Z,97304.25
2018-11-06T15:19:43.426Z,97297.61
2018-11-06T15:22:11.949Z,97301.79
2018-11-06T15:24:40.484Z,97297.26
2018-11-06T15:27:08.989Z,97298.38
2018-11-06T15:29:37.507Z,97301.94
2018-11-06T15:32:06.058Z,97302.25
2018-11-06T15:34:34.591Z,97297.73
2018-11-06T15:37:03.098Z,97302.31
2018-11-06T15:39:31.652Z,97299.96
2018-11-06T15:42:00.306Z,97301.30
2018-11-06T15:44:28.658Z,97306.16
2018-11-06T15:46:57.154Z,97305.09
2018-11-06T15:49:25.689Z,97314.78
2018-11-06T15:51:54.184Z,97304.85
2018-11-06T15:54:22.668Z,97307.55
2018-11-06T15:56:51.215Z,97309.41
2018-11-06T15:59:19.685Z,97306.73
2018-11-06T16:01:48.233Z,97308.34
2018-11-06T16:04:16.659Z,97308.63
2018-11-06T16:06:45.164Z,97300.82
2018-11-06T16:09:13.626Z,97304.84
2018-11-06T16:11:42.132Z,97309.66
2018-11-06T16:14:10.639Z,97302.97
2018-11-06T16:16:39.131Z,97303.70
2018-11-06T16:19:08.121Z,97300.50
2018-11-06T16:21:36.631Z,97303.69
2018-11-06T16:24:05.197Z,97306.09
2018-11-06T16:26:33.670Z,97301.52
2018-11-06T16:29:02.179Z,97302.05
2018-11-06T16:31:30.779Z,97307.14
2018-11-06T16:33:59.622Z,97306.31
2018-11-06T16:36:28.227Z,97299.61
2018-11-06T16:39:01.379Z,97298.77
2018-11-06T16:41:49.882Z,97307.01
2018-11-06T16:44:27.774Z,97308.92
2018-11-06T16:47:08.447Z,97306.70
2018-11-06T16:49:39.071Z,97301.05
2018-11-06T16:52:13.806Z,97304.03
2018-11-06T16:57:50.491Z,97307.77
2018-11-06T17:00:24.665Z,97304.20
2018-11-06T17:02:56.059Z,97303.66
2018-11-06T17:05:25.373Z,97300.73
2018-11-06T17:07:55.168Z,97300.69
2018-11-06T17:10:26.309Z,97304.92
2018-11-06T17:12:54.920Z,97303.81
2018-11-06T17:15:24.101Z,97306.46
2018-11-06T17:17:53.463Z,97303.78
2018-11-06T17:20:22.450Z,97304.59
2018-11-06T17:22:51.068Z,97307.80
2018-11-06T17:25:20.839Z,97305.39
2018-11-06T17:27:49.366Z,97307.25
2018-11-06T17:30:18.699Z,97306.41
2018-11-06T17:32:47.216Z,97309.38
2018-11-06T17:35:17.132Z,97308.72
2018-11-06T17:37:45.911Z,97309.51
2018-11-06T17:40:15.739Z,97310.33
2018-11-06T17:42:44.527Z,97299.30
2018-11-06T17:45:14.709Z,97302.79
2018-11-06T17:47:43.456Z,97304.84
2018-11-06T17:50:13.236Z,97305.89
2018-11-06T17:52:41.743Z,97307.73
2018-11-06T17:55:11.999Z,97306.37
2018-11-06T17:57:40.876Z,97312.27
2018-11-06T18:00:13.212Z,97310.05
2018-11-06T18:02:41.761Z,97306.77
2018-11-06T18:05:11.578Z,97311.48
2018-11-06T18:07:40.796Z,97304.27
2018-11-06T18:10:10.397Z,97309.55
2018-11-06T18:12:38.899Z,97310.58
2018-11-06T18:15:07.493Z,97310.58
2018-11-06T18:17:36.149Z,97305.53
2018-11-06T18:20:04.902Z,97308.98
2018-11-06T18:22:33.367Z,97312.43
2018-11-06T18:25:01.920Z,97313.16
2018-11-06T18:27:30.398Z,97313.76
2018-11-06T18:29:58.880Z,97312.64
2018-11-06T18:32:27.436Z,97309.41
2018-11-06T18:34:56.324Z,97317.39
2018-11-06T18:37:24.822Z,97320.01
2018-11-06T18:39:53.298Z,97316.25
2018-11-06T18:42:21.816Z,97317.49
2018-11-06T18:44:50.310Z,97323.86
2018-11-06T18:47:18.816Z,97324.69
2018-11-06T18:49:47.369Z,97331.31
2018-11-06T18:52:15.782Z,97334.75
2018-11-06T18:54:44.289Z,97331.30
2018-11-06T18:57:12.840Z,97329.11
2018-11-06T18:59:41.373Z,97330.45
2018-11-06T19:02:09.889Z,97328.84
2018-11-06T19:04:38.389Z,97326.44
2018-11-06T19:07:07.119Z,97329.56
2018-11-06T19:09:35.644Z,97330.08
2018-11-06T19:12:04.175Z,97326.06
2018-11-06T19:14:32.693Z,97331.11
2018-11-06T19:17:01.328Z,97327.61
2018-11-06T19:19:29.821Z,97327.05
2018-11-06T19:21:58.414Z,97329.45
2018-11-06T19:24:26.887Z,97323.75
2018-11-06T19:26:55.492Z,97331.16
2018-11-06T19:29:24.393Z,97323.35
2018-11-06T19:31:52.923Z,97329.77
2018-11-06T19:34:21.383Z,97330.02
2018-11-06T19:36:49.882Z,97330.34
2018-11-06T19:39:18.360Z,97338.34
2018-11-06T19:41:46.873Z,97325.95
2018-11-06T19:44:15.360Z,97327.44
2018-11-06T19:46:43.911Z,97329.60
2018-11-06T19:49:12.388Z,97333.27
2018-11-06T19:51:40.889Z,97342.81
2018-11-06T19:54:12.870Z,97335.75
2018-11-06T19:56:41.404Z,97345.30
2018-11-06T19:59:09.881Z,97342.95
2018-11-06T20:01:38.389Z,97350.32
2018-11-06T20:04:06.998Z,97353.23
2018-11-06T20:06:35.499Z,97352.16
2018-11-06T20:09:05.650Z,97362.24
2018-11-06T20:11:34.218Z,97367.03
2018-11-06T20:14:02.682Z,97364.78
2018-11-06T20:16:31.198Z,97365.05
2018-11-06T20:18:59.685Z,97370.31
2018-11-06T20:21:28.170Z,97374.52
2018-11-06T20:23:56.650Z,97373.75
2018-11-06T20:26:25.112Z,97371.58
2018-11-06T20:28:53.606Z,97377.05
2018-11-06T20:31:22.092Z,97378.90
2018-11-06T20:33:50.693Z,97381.54
2018-11-06T20:36:19.118Z,97380.33
2018-11-06T20:38:47.639Z,97385.83
2018-11-06T20:41:16.109Z,97387.84
2018-11-06T20:43:44.580Z,97378.67
2018-11-06T20:46:13.089Z,97381.28
2018-11-06T20:48:41.638Z,97386.16
2018-11-06T20:51:10.088Z,97382.83
2018-11-06T20:53:38.680Z,97383.24
2018-11-06T20:56:07.409Z,97389.25
2018-11-06T20:58:35.962Z,97393.27
2018-11-06T21:01:04.488Z,97399.36
2018-11-06T21:03:32.977Z,97396.90
2018-11-06T21:06:01.453Z,97400.66
2018-11-06T21:08:29.973Z,97393.91
2018-11-06T21:10:58.543Z,97398.69
2018-11-06T21:13:27.039Z,97400.00
2018-11-06T21:15:55.473Z,97400.27
2018-11-06T21:18:24.027Z,97404.81
2018-11-06T21:20:52.546Z,97405.66
2018-11-06T21:23:21.154Z,97403.42
2018-11-06T21:25:49.861Z,97404.23
2018-11-06T21:28:18.347Z,97406.36
2018-11-06T21:30:46.844Z,97410.36
2018-11-06T21:33:15.393Z,97404.59
2018-11-06T21:35:43.895Z,97410.74
2018-11-06T21:38:12.369Z,97416.65
2018-11-06T21:40:41.082Z,97418.69
2018-11-06T21:43:09.595Z,97411.26
2018-11-06T21:45:38.084Z,97421.34
2018-11-06T21:48:06.740Z,97416.56
2018-11-06T21:50:35.217Z,97417.75
2018-11-06T21:53:03.787Z,97427.02
2018-11-06T21:55:38.584Z,97417.02
2018-11-06T21:58:07.147Z,97421.32
2018-11-06T22:00:35.701Z,97425.48
2018-11-06T22:03:04.255Z,97431.59
2018-11-06T22:05:32.747Z,97432.36
2018-11-06T22:08:01.293Z,97433.60
2018-11-06T22:10:30.874Z,97436.56
2018-11-06T22:12:59.585Z,97438.56
2018-11-06T22:15:37.026Z,97433.94
2018-11-06T22:18:06.220Z,97458.03
2018-11-06T22:20:34.780Z,97471.49
2018-11-06T22:23:03.312Z,97496.50
2018-11-06T22:25:31.876Z,97499.73
2018-11-06T22:28:01.438Z,97508.47
2018-11-06T22:30:30.170Z,97503.97
2018-11-06T22:32:58.691Z,97501.55
2018-11-06T22:35:27.223Z,97499.64
2018-11-06T22:37:55.736Z,97487.05
2018-11-06T22:40:25.458Z,97478.64
2018-11-06T22:42:53.947Z,97470.47
2018-11-06T22:45:22.494Z,97470.34
2018-11-06T22:47:50.982Z,97464.70
2018-11-06T22:50:19.552Z,97458.73
2018-11-06T22:52:51.119Z,97456.37
2018-11-06T22:55:19.664Z,97458.62
2018-11-06T22:57:48.185Z,97475.56
2018-11-06T23:00:23.692Z,97480.42
2018-11-06T23:02:53.705Z,97480.88
2018-11-06T23:05:22.214Z,97489.34
2018-11-06T23:07:55.958Z,97482.85
2018-11-06T23:10:24.601Z,97486.22
2018-11-06T23:12:53.101Z,97483.03
2018-11-06T23:15:21.635Z,97492.28
2018-11-06T23:17:50.126Z,97496.20
2018-11-06T23:20:18.651Z,97490.72
2018-11-06T23:22:47.167Z,97496.31
2018-11-06T23:25:15.686Z,97502.23
2018-11-06T23:27:44.194Z,97506.11
2018-11-06T23:30:14.262Z,97507.16
2018-11-06T23:32:42.838Z,97505.22
2018-11-06T23:35:11.434Z,97518.89
2018-11-06T23:37:40.713Z,97534.47
2018-11-06T23:40:10.162Z,97519.12
2018-11-06T23:42:38.674Z,97526.77
2018-11-06T23:45:07.831Z,97536.42
2018-11-06T23:47:36.374Z,97520.20
2018-11-06T23:50:05.004Z,97524.59
2018-11-06T23:52:33.515Z,97531.00
2018-11-06T23:55:02.065Z,97530.32
2018-11-06T23:57:31.080Z,97526.39
